sensor_id;sensor_type;location;lat;lon;timestamp;pressure;altitude;pressure_sealevel;temperature;humidity
55755;BME280;41674;52.290;-1.474;2022-08-19T00:01:52;100583.39;;;19.19;90.33
55755;BME280;41674;52.290;-1.474;2022-08-19T00:04:28;100578.42;;;19.11;91.88
55755;BME280;41674;52.290;-1.474;2022-08-19T00:07:01;100577.71;;;18.88;92.02
55755;BME280;41674;52.290;-1.474;2022-08-19T00:09:33;100578.16;;;18.71;92.06
55755;BME280;41674;52.290;-1.474;2022-08-19T00:12:05;100575.11;;;20.08;86.97
55755;BME280;41674;52.290;-1.474;2022-08-19T00:14:41;100574.41;;;20.24;85.26
55755;BME280;41674;52.290;-1.474;2022-08-19T00:17:13;100572.97;;;20.52;85.13
55755;BME280;41674;52.290;-1.474;2022-08-19T00:19:44;100567.22;;;19.09;90.52
55755;BME280;41674;52.290;-1.474;2022-08-19T00:22:16;100566.68;;;19.25;91.60
55755;BME280;41674;52.290;-1.474;2022-08-19T00:24:47;100570.62;;;18.62;91.82
55755;BME280;41674;52.290;-1.474;2022-08-19T00:27:19;100571.08;;;19.88;86.92
55755;BME280;41674;52.290;-1.474;2022-08-19T00:29:56;100573.38;;;20.38;85.09
55755;BME280;41674;52.290;-1.474;2022-08-19T00:32:29;100576.73;;;19.41;88.02
55755;BME280;41674;52.290;-1.474;2022-08-19T00:35:01;100579.89;;;19.51;88.66
55755;BME280;41674;52.290;-1.474;2022-08-19T00:37:34;100575.19;;;20.49;83.68
55755;BME280;41674;52.290;-1.474;2022-08-19T00:40:07;100574.93;;;20.09;84.30
55755;BME280;41674;52.290;-1.474;2022-08-19T00:42:38;100568.56;;;20.64;82.89
55755;BME280;41674;52.290;-1.474;2022-08-19T00:45:13;100566.90;;;20.90;82.47
55755;BME280;41674;52.290;-1.474;2022-08-19T00:47:45;100568.88;;;20.56;82.12
55755;BME280;41674;52.290;-1.474;2022-08-19T00:50:23;100570.86;;;20.92;82.70
55755;BME280;41674;52.290;-1.474;2022-08-19T00:52:54;100580.75;;;19.78;84.68
55755;BME280;41674;52.290;-1.474;2022-08-19T00:55:27;100579.31;;;21.31;81.46
55755;BME280;41674;52.290;-1.474;2022-08-19T00:58:02;100581.05;;;19.44;86.13
55755;BME280;41674;52.290;-1.474;2022-08-19T01:00:35;100577.62;;;20.00;84.71
55755;BME280;41674;52.290;-1.474;2022-08-19T01:03:16;100571.60;;;20.54;83.36
55755;BME280;41674;52.290;-1.474;2022-08-19T01:05:54;100572.78;;;20.89;81.55
55755;BME280;41674;52.290;-1.474;2022-08-19T01:08:26;100570.48;;;20.99;81.09
55755;BME280;41674;52.290;-1.474;2022-08-19T01:11:08;100564.78;;;21.40;80.25
55755;BME280;41674;52.290;-1.474;2022-08-19T01:13:46;100568.88;;;19.83;84.77
55755;BME280;41674;52.290;-1.474;2022-08-19T01:16:21;100571.83;;;20.04;83.84
55755;BME280;41674;52.290;-1.474;2022-08-19T01:18:54;100573.29;;;20.19;84.42
55755;BME280;41674;52.290;-1.474;2022-08-19T01:21:30;100573.15;;;19.88;85.13
55755;BME280;41674;52.290;-1.474;2022-08-19T01:24:04;100575.49;;;20.51;83.10
55755;BME280;41674;52.290;-1.474;2022-08-19T01:26:39;100576.80;;;19.92;84.39
55755;BME280;41674;52.290;-1.474;2022-08-19T01:29:12;100580.04;;;19.51;87.37
55755;BME280;41674;52.290;-1.474;2022-08-19T01:31:45;100581.80;;;20.31;84.39
55755;BME280;41674;52.290;-1.474;2022-08-19T01:34:16;100584.89;;;20.25;83.85
55755;BME280;41674;52.290;-1.474;2022-08-19T01:36:48;100586.61;;;19.64;85.47
55755;BME280;41674;52.290;-1.474;2022-08-19T01:39:23;100586.71;;;20.11;83.65
55755;BME280;41674;52.290;-1.474;2022-08-19T01:41:54;100588.25;;;18.62;90.24
55755;BME280;41674;52.290;-1.474;2022-08-19T01:44:31;100587.30;;;19.27;88.89
55755;BME280;41674;52.290;-1.474;2022-08-19T01:47:06;100583.94;;;19.16;89.18
55755;BME280;41674;52.290;-1.474;2022-08-19T01:49:40;100581.72;;;19.06;89.20
55755;BME280;41674;52.290;-1.474;2022-08-19T01:52:17;100582.90;;;19.99;86.66
55755;BME280;41674;52.290;-1.474;2022-08-19T01:54:50;100581.44;;;19.69;87.41
55755;BME280;41674;52.290;-1.474;2022-08-19T01:57:27;100583.40;;;20.19;84.76
55755;BME280;41674;52.290;-1.474;2022-08-19T02:00:06;100581.37;;;20.30;85.89
55755;BME280;41674;52.290;-1.474;2022-08-19T02:02:39;100582.11;;;19.72;87.83
55755;BME280;41674;52.290;-1.474;2022-08-19T02:05:11;100584.00;;;19.42;89.92
55755;BME280;41674;52.290;-1.474;2022-08-19T02:07:44;100585.01;;;20.18;87.00
55755;BME280;41674;52.290;-1.474;2022-08-19T02:10:22;100584.74;;;19.17;92.07
55755;BME280;41674;52.290;-1.474;2022-08-19T02:12:54;100586.35;;;19.70;89.27
55755;BME280;41674;52.290;-1.474;2022-08-19T02:15:30;100596.44;;;17.94;98.49
55755;BME280;41674;52.290;-1.474;2022-08-19T02:18:02;100597.60;;;18.73;94.96
55755;BME280;41674;52.290;-1.474;2022-08-19T02:20:36;100598.26;;;18.87;94.12
55755;BME280;41674;52.290;-1.474;2022-08-19T02:23:14;100593.51;;;19.62;90.47
55755;BME280;41674;52.290;-1.474;2022-08-19T02:25:47;100588.46;;;19.34;90.82
55755;BME280;41674;52.290;-1.474;2022-08-19T02:28:19;100589.61;;;20.19;87.92
55755;BME280;41674;52.290;-1.474;2022-08-19T02:30:56;100595.08;;;19.90;88.05
55755;BME280;41674;52.290;-1.474;2022-08-19T02:33:28;100597.10;;;20.02;87.65
55755;BME280;41674;52.290;-1.474;2022-08-19T02:36:02;100601.19;;;20.60;86.03
55755;BME280;41674;52.290;-1.474;2022-08-19T02:38:35;100602.79;;;20.02;87.26
55755;BME280;41674;52.290;-1.474;2022-08-19T02:41:11;100600.92;;;19.96;87.91
55755;BME280;41674;52.290;-1.474;2022-08-19T02:43:43;100604.42;;;19.67;87.32
55755;BME280;41674;52.290;-1.474;2022-08-19T02:46:17;100605.24;;;20.26;85.29
55755;BME280;41674;52.290;-1.474;2022-08-19T02:48:50;100603.39;;;20.54;85.15
55755;BME280;41674;52.290;-1.474;2022-08-19T02:51:24;100607.30;;;20.09;85.61
55755;BME280;41674;52.290;-1.474;2022-08-19T02:53:56;100603.78;;;20.71;83.96
55755;BME280;41674;52.290;-1.474;2022-08-19T02:56:28;100602.18;;;20.71;83.94
55755;BME280;41674;52.290;-1.474;2022-08-19T02:59:00;100605.71;;;20.64;84.59
55755;BME280;41674;52.290;-1.474;2022-08-19T03:01:39;100605.29;;;19.56;87.18
55755;BME280;41674;52.290;-1.474;2022-08-19T03:04:13;100603.49;;;19.95;87.55
55755;BME280;41674;52.290;-1.474;2022-08-19T03:06:47;100605.08;;;20.62;85.32
55755;BME280;41674;52.290;-1.474;2022-08-19T03:09:21;100605.69;;;20.50;85.33
55755;BME280;41674;52.290;-1.474;2022-08-19T03:11:57;100606.44;;;19.14;88.26
55755;BME280;41674;52.290;-1.474;2022-08-19T03:14:32;100602.93;;;19.30;89.34
55755;BME280;41674;52.290;-1.474;2022-08-19T03:17:05;100598.96;;;19.82;87.10
55755;BME280;41674;52.290;-1.474;2022-08-19T03:19:41;100603.72;;;19.43;87.01
55755;BME280;41674;52.290;-1.474;2022-08-19T03:22:18;100607.44;;;19.43;87.02
55755;BME280;41674;52.290;-1.474;2022-08-19T03:24:55;100612.87;;;19.37;86.85
55755;BME280;41674;52.290;-1.474;2022-08-19T03:27:27;100620.39;;;18.97;89.12
55755;BME280;41674;52.290;-1.474;2022-08-19T03:29:59;100624.46;;;18.75;87.75
55755;BME280;41674;52.290;-1.474;2022-08-19T03:32:30;100627.78;;;18.78;89.26
55755;BME280;41674;52.290;-1.474;2022-08-19T03:35:02;100625.70;;;18.83;88.74
55755;BME280;41674;52.290;-1.474;2022-08-19T03:37:33;100621.15;;;19.19;87.22
55755;BME280;41674;52.290;-1.474;2022-08-19T03:40:05;100625.78;;;18.85;87.80
55755;BME280;41674;52.290;-1.474;2022-08-19T03:42:37;100627.05;;;19.72;85.36
55755;BME280;41674;52.290;-1.474;2022-08-19T03:45:09;100630.62;;;19.71;85.52
55755;BME280;41674;52.290;-1.474;2022-08-19T03:47:42;100633.28;;;19.03;88.10
55755;BME280;41674;52.290;-1.474;2022-08-19T03:50:14;100631.22;;;19.19;86.83
55755;BME280;41674;52.290;-1.474;2022-08-19T03:52:49;100639.33;;;18.58;90.23
55755;BME280;41674;52.290;-1.474;2022-08-19T03:55:20;100630.01;;;19.42;87.29
55755;BME280;41674;52.290;-1.474;2022-08-19T03:57:52;100627.18;;;19.61;86.86
55755;BME280;41674;52.290;-1.474;2022-08-19T04:00:28;100632.97;;;18.66;89.84
55755;BME280;41674;52.290;-1.474;2022-08-19T04:03:00;100623.55;;;19.50;86.71
55755;BME280;41674;52.290;-1.474;2022-08-19T04:05:31;100634.10;;;18.49;90.20
55755;BME280;41674;52.290;-1.474;2022-08-19T04:08:02;100632.67;;;17.53;96.65
55755;BME280;41674;52.290;-1.474;2022-08-19T04:10:48;100632.98;;;17.88;97.14
55755;BME280;41674;52.290;-1.474;2022-08-19T04:13:20;100637.23;;;17.74;96.80
55755;BME280;41674;52.290;-1.474;2022-08-19T04:15:53;100644.84;;;17.63;95.03
55755;BME280;41674;52.290;-1.474;2022-08-19T04:18:24;100648.33;;;18.80;90.28
55755;BME280;41674;52.290;-1.474;2022-08-19T04:21:00;100653.42;;;18.19;90.81
55755;BME280;41674;52.290;-1.474;2022-08-19T04:23:33;100654.44;;;18.96;87.86
55755;BME280;41674;52.290;-1.474;2022-08-19T04:26:05;100651.01;;;18.90;88.27
55755;BME280;41674;52.290;-1.474;2022-08-19T04:28:37;100653.82;;;18.16;93.22
55755;BME280;41674;52.290;-1.474;2022-08-19T04:31:12;100653.52;;;18.25;92.83
55755;BME280;41674;52.290;-1.474;2022-08-19T04:33:45;100654.34;;;18.28;91.70
55755;BME280;41674;52.290;-1.474;2022-08-19T04:36:17;100650.87;;;17.52;95.77
55755;BME280;41674;52.290;-1.474;2022-08-19T04:38:50;100653.36;;;17.41;96.46
55755;BME280;41674;52.290;-1.474;2022-08-19T04:41:24;100660.95;;;16.97;96.76
55755;BME280;41674;52.290;-1.474;2022-08-19T04:43:56;100666.30;;;16.14;99.69
55755;BME280;41674;52.290;-1.474;2022-08-19T04:46:27;100671.20;;;16.07;100.00
55755;BME280;41674;52.290;-1.474;2022-08-19T04:48:59;100673.59;;;16.68;99.91
55755;BME280;41674;52.290;-1.474;2022-08-19T04:51:32;100674.42;;;16.79;97.07
55755;BME280;41674;52.290;-1.474;2022-08-19T04:54:04;100671.96;;;17.29;95.25
55755;BME280;41674;52.290;-1.474;2022-08-19T04:56:36;100679.59;;;17.03;95.99
55755;BME280;41674;52.290;-1.474;2022-08-19T04:59:09;100681.60;;;15.98;99.80
55755;BME280;41674;52.290;-1.474;2022-08-19T05:01:43;100681.80;;;14.59;100.00
55755;BME280;41674;52.290;-1.474;2022-08-19T05:04:15;100687.03;;;14.92;100.00
55755;BME280;41674;52.290;-1.474;2022-08-19T05:06:48;100687.65;;;15.23;100.00
55755;BME280;41674;52.290;-1.474;2022-08-19T05:09:20;100685.05;;;16.70;96.91
55755;BME280;41674;52.290;-1.474;2022-08-19T05:11:56;100682.02;;;17.33;93.18
55755;BME280;41674;52.290;-1.474;2022-08-19T05:14:27;100685.83;;;17.37;92.92
55755;BME280;41674;52.290;-1.474;2022-08-19T05:17:00;100689.76;;;18.31;88.03
55755;BME280;41674;52.290;-1.474;2022-08-19T05:19:32;100687.72;;;17.57;88.84
55755;BME280;41674;52.290;-1.474;2022-08-19T05:22:08;100692.38;;;17.81;88.96
55755;BME280;41674;52.290;-1.474;2022-08-19T05:24:40;100700.78;;;18.18;89.08
55755;BME280;41674;52.290;-1.474;2022-08-19T05:27:12;100703.66;;;17.70;88.43
55755;BME280;41674;52.290;-1.474;2022-08-19T05:29:43;100706.08;;;18.04;88.06
55755;BME280;41674;52.290;-1.474;2022-08-19T05:32:15;100708.60;;;18.12;87.64
55755;BME280;41674;52.290;-1.474;2022-08-19T05:34:47;100718.27;;;18.52;86.42
55755;BME280;41674;52.290;-1.474;2022-08-19T05:37:24;100722.91;;;18.18;86.71
55755;BME280;41674;52.290;-1.474;2022-08-19T05:39:56;100728.86;;;18.53;87.27
55755;BME280;41674;52.290;-1.474;2022-08-19T05:42:32;100733.78;;;17.14;89.45
55755;BME280;41674;52.290;-1.474;2022-08-19T05:45:05;100736.66;;;17.04;92.37
55755;BME280;41674;52.290;-1.474;2022-08-19T05:47:37;100735.70;;;17.18;92.03
55755;BME280;41674;52.290;-1.474;2022-08-19T05:50:08;100735.43;;;17.58;89.83
55755;BME280;41674;52.290;-1.474;2022-08-19T05:52:39;100738.17;;;18.66;87.29
55755;BME280;41674;52.290;-1.474;2022-08-19T05:55:11;100743.49;;;18.32;86.49
55755;BME280;41674;52.290;-1.474;2022-08-19T05:57:43;100750.55;;;18.79;85.25
55755;BME280;41674;52.290;-1.474;2022-08-19T06:00:16;100749.99;;;18.66;85.55
55755;BME280;41674;52.290;-1.474;2022-08-19T06:02:48;100751.01;;;18.89;83.89
55755;BME280;41674;52.290;-1.474;2022-08-19T06:05:25;100750.63;;;19.46;82.06
55755;BME280;41674;52.290;-1.474;2022-08-19T06:07:57;100755.99;;;18.59;83.17
55755;BME280;41674;52.290;-1.474;2022-08-19T06:10:29;100757.24;;;18.52;82.53
55755;BME280;41674;52.290;-1.474;2022-08-19T06:13:00;100762.41;;;19.17;82.78
55755;BME280;41674;52.290;-1.474;2022-08-19T06:15:31;100764.69;;;19.41;81.09
55755;BME280;41674;52.290;-1.474;2022-08-19T06:18:02;100766.74;;;18.76;82.75
55755;BME280;41674;52.290;-1.474;2022-08-19T06:20:34;100767.27;;;18.92;82.75
55755;BME280;41674;52.290;-1.474;2022-08-19T06:23:06;100771.39;;;18.32;84.74
55755;BME280;41674;52.290;-1.474;2022-08-19T06:25:39;100779.80;;;18.17;85.69
55755;BME280;41674;52.290;-1.474;2022-08-19T06:28:11;100783.90;;;17.12;89.41
55755;BME280;41674;52.290;-1.474;2022-08-19T06:30:49;100784.29;;;16.78;90.96
55755;BME280;41674;52.290;-1.474;2022-08-19T06:33:20;100782.94;;;17.38;88.31
55755;BME280;41674;52.290;-1.474;2022-08-19T06:35:53;100787.84;;;16.76;90.96
55755;BME280;41674;52.290;-1.474;2022-08-19T06:38:25;100787.45;;;16.43;90.93
55755;BME280;41674;52.290;-1.474;2022-08-19T06:41:01;100789.96;;;13.94;99.67
55755;BME280;41674;52.290;-1.474;2022-08-19T06:43:32;100789.38;;;13.93;100.00
55755;BME280;41674;52.290;-1.474;2022-08-19T06:46:03;100792.93;;;13.81;100.00
55755;BME280;41674;52.290;-1.474;2022-08-19T06:48:41;100792.84;;;13.75;100.00
55755;BME280;41674;52.290;-1.474;2022-08-19T06:51:14;100800.17;;;13.08;100.00
55755;BME280;41674;52.290;-1.474;2022-08-19T06:53:57;100806.38;;;12.80;100.00
55755;BME280;41674;52.290;-1.474;2022-08-19T06:56:31;100800.30;;;13.20;100.00
55755;BME280;41674;52.290;-1.474;2022-08-19T06:59:04;100807.17;;;13.33;98.92
55755;BME280;41674;52.290;-1.474;2022-08-19T07:01:38;100804.81;;;13.71;93.68
55755;BME280;41674;52.290;-1.474;2022-08-19T07:04:11;100808.47;;;14.29;88.68
55755;BME280;41674;52.290;-1.474;2022-08-19T07:06:43;100814.73;;;14.26;86.91
55755;BME280;41674;52.290;-1.474;2022-08-19T07:09:17;100818.33;;;13.61;88.08
55755;BME280;41674;52.290;-1.474;2022-08-19T07:11:51;100818.54;;;13.38;89.29
55755;BME280;41674;52.290;-1.474;2022-08-19T07:14:35;100821.22;;;13.34;90.47
55755;BME280;41674;52.290;-1.474;2022-08-19T07:17:10;100820.49;;;13.28;90.36
55755;BME280;41674;52.290;-1.474;2022-08-19T07:19:44;100821.49;;;13.29;88.44
55755;BME280;41674;52.290;-1.474;2022-08-19T07:22:15;100824.86;;;13.97;85.41
55755;BME280;41674;52.290;-1.474;2022-08-19T07:24:49;100825.02;;;13.64;85.88
55755;BME280;41674;52.290;-1.474;2022-08-19T07:27:21;100830.15;;;13.38;89.30
55755;BME280;41674;52.290;-1.474;2022-08-19T07:29:54;100830.15;;;13.65;86.15
55755;BME280;41674;52.290;-1.474;2022-08-19T07:32:28;100836.48;;;14.09;83.67
55755;BME280;41674;52.290;-1.474;2022-08-19T07:35:00;100837.52;;;13.70;81.42
55755;BME280;41674;52.290;-1.474;2022-08-19T07:37:31;100834.43;;;14.37;82.16
55755;BME280;41674;52.290;-1.474;2022-08-19T07:40:12;100839.88;;;13.85;81.51
55755;BME280;41674;52.290;-1.474;2022-08-19T07:42:50;100841.13;;;13.99;82.52
55755;BME280;41674;52.290;-1.474;2022-08-19T07:45:22;100839.07;;;14.10;81.64
55755;BME280;41674;52.290;-1.474;2022-08-19T07:47:53;100842.21;;;14.54;79.05
55755;BME280;41674;52.290;-1.474;2022-08-19T07:50:24;100842.42;;;14.46;78.35
55755;BME280;41674;52.290;-1.474;2022-08-19T07:53:00;100846.11;;;13.95;80.74
55755;BME280;41674;52.290;-1.474;2022-08-19T07:55:32;100853.99;;;13.41;80.50
55755;BME280;41674;52.290;-1.474;2022-08-19T07:58:05;100850.31;;;13.76;79.88
55755;BME280;41674;52.290;-1.474;2022-08-19T08:00:37;100851.08;;;14.32;79.41
55755;BME280;41674;52.290;-1.474;2022-08-19T08:03:09;100849.05;;;14.38;76.38
55755;BME280;41674;52.290;-1.474;2022-08-19T08:05:41;100850.63;;;13.95;77.26
55755;BME280;41674;52.290;-1.474;2022-08-19T08:08:13;100853.70;;;14.95;75.60
55755;BME280;41674;52.290;-1.474;2022-08-19T08:10:46;100859.55;;;15.64;72.77
55755;BME280;41674;52.290;-1.474;2022-08-19T08:13:17;100862.61;;;14.59;74.79
55755;BME280;41674;52.290;-1.474;2022-08-19T08:15:49;100863.04;;;14.39;75.11
55755;BME280;41674;52.290;-1.474;2022-08-19T08:18:20;100855.26;;;14.64;75.62
55755;BME280;41674;52.290;-1.474;2022-08-19T08:20:52;100853.53;;;15.32;72.71
55755;BME280;41674;52.290;-1.474;2022-08-19T08:23:24;100858.70;;;14.48;70.73
55755;BME280;41674;52.290;-1.474;2022-08-19T08:26:02;100864.47;;;15.35;68.92
55755;BME280;41674;52.290;-1.474;2022-08-19T08:28:33;100867.84;;;15.28;69.97
55755;BME280;41674;52.290;-1.474;2022-08-19T08:31:05;100866.66;;;15.51;67.14
55755;BME280;41674;52.290;-1.474;2022-08-19T08:33:37;100870.53;;;15.73;66.52
55755;BME280;41674;52.290;-1.474;2022-08-19T08:36:09;100868.71;;;15.06;67.67
55755;BME280;41674;52.290;-1.474;2022-08-19T08:38:48;100880.02;;;14.19;71.27
55755;BME280;41674;52.290;-1.474;2022-08-19T08:41:26;100873.72;;;14.85;69.63
55755;BME280;41674;52.290;-1.474;2022-08-19T08:44:01;100875.60;;;15.04;61.22
55755;BME280;41674;52.290;-1.474;2022-08-19T08:46:36;100871.62;;;14.64;62.62
55755;BME280;41674;52.290;-1.474;2022-08-19T08:49:20;100865.41;;;14.64;59.44
55755;BME280;41674;52.290;-1.474;2022-08-19T08:52:02;100867.15;;;15.07;57.34
55755;BME280;41674;52.290;-1.474;2022-08-19T08:54:38;100871.90;;;14.99;60.97
55755;BME280;41674;52.290;-1.474;2022-08-19T08:57:19;100866.51;;;14.87;57.75
55755;BME280;41674;52.290;-1.474;2022-08-19T09:00:04;100876.08;;;14.59;57.11
55755;BME280;41674;52.290;-1.474;2022-08-19T09:02:35;100864.66;;;15.64;55.23
55755;BME280;41674;52.290;-1.474;2022-08-19T09:05:09;100865.82;;;14.96;57.91
55755;BME280;41674;52.290;-1.474;2022-08-19T09:07:53;100866.23;;;15.06;59.79
55755;BME280;41674;52.290;-1.474;2022-08-19T09:10:33;100866.72;;;15.05;60.32
55755;BME280;41674;52.290;-1.474;2022-08-19T09:13:19;100874.44;;;14.90;60.35
55755;BME280;41674;52.290;-1.474;2022-08-19T09:16:19;100875.68;;;15.36;57.58
55755;BME280;41674;52.290;-1.474;2022-08-19T09:18:54;100880.45;;;15.99;57.68
55755;BME280;41674;52.290;-1.474;2022-08-19T09:21:27;100869.83;;;15.36;59.28
55755;BME280;41674;52.290;-1.474;2022-08-19T09:23:59;100873.56;;;15.60;58.20
55755;BME280;41674;52.290;-1.474;2022-08-19T09:26:32;100875.86;;;15.44;58.29
55755;BME280;41674;52.290;-1.474;2022-08-19T09:29:03;100877.07;;;15.16;60.05
55755;BME280;41674;52.290;-1.474;2022-08-19T09:31:34;100881.94;;;15.12;59.36
55755;BME280;41674;52.290;-1.474;2022-08-19T09:34:06;100885.72;;;15.43;59.44
55755;BME280;41674;52.290;-1.474;2022-08-19T09:36:42;100888.67;;;15.19;60.66
55755;BME280;41674;52.290;-1.474;2022-08-19T09:39:13;100886.73;;;15.45;60.00
55755;BME280;41674;52.290;-1.474;2022-08-19T09:41:50;100893.21;;;16.30;55.77
55755;BME280;41674;52.290;-1.474;2022-08-19T09:44:22;100891.88;;;15.82;58.22
55755;BME280;41674;52.290;-1.474;2022-08-19T09:46:54;100890.46;;;15.71;57.03
55755;BME280;41674;52.290;-1.474;2022-08-19T09:49:25;100877.71;;;16.25;57.82
55755;BME280;41674;52.290;-1.474;2022-08-19T09:51:57;100872.54;;;16.53;53.59
55755;BME280;41674;52.290;-1.474;2022-08-19T09:54:34;100873.34;;;16.44;54.69
55755;BME280;41674;52.290;-1.474;2022-08-19T09:57:05;100884.60;;;16.11;57.05
55755;BME280;41674;52.290;-1.474;2022-08-19T09:59:39;100877.92;;;16.28;56.07
55755;BME280;41674;52.290;-1.474;2022-08-19T10:02:11;100872.32;;;16.84;54.24
55755;BME280;41674;52.290;-1.474;2022-08-19T10:04:43;100887.48;;;15.70;57.72
55755;BME280;41674;52.290;-1.474;2022-08-19T10:07:16;100885.58;;;16.40;57.18
55755;BME280;41674;52.290;-1.474;2022-08-19T10:09:47;100881.58;;;16.35;57.78
55755;BME280;41674;52.290;-1.474;2022-08-19T10:12:19;100885.63;;;16.28;57.81
55755;BME280;41674;52.290;-1.474;2022-08-19T10:14:51;100882.76;;;15.53;59.83
55755;BME280;41674;52.290;-1.474;2022-08-19T10:17:29;100882.95;;;15.85;58.91
55755;BME280;41674;52.290;-1.474;2022-08-19T10:20:02;100874.94;;;17.52;56.01
55755;BME280;41674;52.290;-1.474;2022-08-19T10:22:39;100876.50;;;18.08;53.22
55755;BME280;41674;52.290;-1.474;2022-08-19T10:25:11;100880.90;;;17.06;54.84
55755;BME280;41674;52.290;-1.474;2022-08-19T10:27:42;100874.00;;;18.39;50.84
55755;BME280;41674;52.290;-1.474;2022-08-19T10:30:15;100878.74;;;18.17;50.94
55755;BME280;41674;52.290;-1.474;2022-08-19T10:32:52;100879.32;;;18.45;50.89
55755;BME280;41674;52.290;-1.474;2022-08-19T10:35:24;100877.27;;;17.84;53.82
55755;BME280;41674;52.290;-1.474;2022-08-19T10:37:56;100880.90;;;18.18;53.06
55755;BME280;41674;52.290;-1.474;2022-08-19T10:40:33;100881.66;;;18.00;52.62
55755;BME280;41674;52.290;-1.474;2022-08-19T10:43:05;100885.68;;;18.62;52.04
55755;BME280;41674;52.290;-1.474;2022-08-19T10:45:41;100883.56;;;20.10;48.48
55755;BME280;41674;52.290;-1.474;2022-08-19T10:48:23;100882.57;;;18.90;48.34
55755;BME280;41674;52.290;-1.474;2022-08-19T10:51:03;100886.03;;;19.01;50.22
55755;BME280;41674;52.290;-1.474;2022-08-19T10:53:35;100891.29;;;18.31;49.35
55755;BME280;41674;52.290;-1.474;2022-08-19T10:56:06;100890.19;;;17.58;50.85
55755;BME280;41674;52.290;-1.474;2022-08-19T10:58:38;100893.83;;;16.22;54.30
55755;BME280;41674;52.290;-1.474;2022-08-19T11:01:09;100896.76;;;17.22;54.39
55755;BME280;41674;52.290;-1.474;2022-08-19T11:03:41;100893.80;;;17.65;53.36
55755;BME280;41674;52.290;-1.474;2022-08-19T11:06:17;100891.19;;;18.85;49.89
55755;BME280;41674;52.290;-1.474;2022-08-19T11:08:48;100882.82;;;18.31;50.48
55755;BME280;41674;52.290;-1.474;2022-08-19T11:11:20;100883.88;;;18.62;50.10
55755;BME280;41674;52.290;-1.474;2022-08-19T11:13:57;100882.43;;;18.97;48.05
55755;BME280;41674;52.290;-1.474;2022-08-19T11:16:29;100877.24;;;19.69;46.43
55755;BME280;41674;52.290;-1.474;2022-08-19T11:19:01;100879.18;;;19.59;47.21
55755;BME280;41674;52.290;-1.474;2022-08-19T11:21:34;100878.99;;;19.08;46.82
55755;BME280;41674;52.290;-1.474;2022-08-19T11:24:08;100876.18;;;20.50;45.22
55755;BME280;41674;52.290;-1.474;2022-08-19T11:26:46;100867.60;;;21.86;41.88
55755;BME280;41674;52.290;-1.474;2022-08-19T11:29:19;100864.41;;;21.71;41.41
55755;BME280;41674;52.290;-1.474;2022-08-19T11:31:51;100873.39;;;18.79;46.01
55755;BME280;41674;52.290;-1.474;2022-08-19T11:34:28;100876.98;;;19.46;46.59
55755;BME280;41674;52.290;-1.474;2022-08-19T11:37:00;100871.56;;;19.54;45.29
55755;BME280;41674;52.290;-1.474;2022-08-19T11:39:33;100864.80;;;21.28;43.13
55755;BME280;41674;52.290;-1.474;2022-08-19T11:42:06;100866.46;;;20.78;41.93
55755;BME280;41674;52.290;-1.474;2022-08-19T11:44:37;100875.63;;;22.35;40.06
55755;BME280;41674;52.290;-1.474;2022-08-19T11:47:09;100864.82;;;23.21;38.35
55755;BME280;41674;52.290;-1.474;2022-08-19T11:49:42;100872.62;;;21.72;39.12
55755;BME280;41674;52.290;-1.474;2022-08-19T11:52:15;100872.82;;;20.84;41.49
55755;BME280;41674;52.290;-1.474;2022-08-19T11:54:53;100878.34;;;20.72;41.17
55755;BME280;41674;52.290;-1.474;2022-08-19T11:57:24;100871.24;;;22.33;39.90
55755;BME280;41674;52.290;-1.474;2022-08-19T11:59:56;100864.88;;;21.73;39.87
55755;BME280;41674;52.290;-1.474;2022-08-19T12:02:28;100867.89;;;23.06;37.65
55755;BME280;41674;52.290;-1.474;2022-08-19T12:04:59;100865.30;;;23.78;35.91
55755;BME280;41674;52.290;-1.474;2022-08-19T12:07:31;100861.68;;;23.16;35.38
55755;BME280;41674;52.290;-1.474;2022-08-19T12:10:03;100865.06;;;24.37;34.72
55755;BME280;41674;52.290;-1.474;2022-08-19T12:12:35;100870.95;;;22.94;35.60
55755;BME280;41674;52.290;-1.474;2022-08-19T12:15:07;100869.44;;;24.36;35.02
55755;BME280;41674;52.290;-1.474;2022-08-19T12:17:39;100860.60;;;24.63;33.36
55755;BME280;41674;52.290;-1.474;2022-08-19T12:20:12;100865.42;;;25.48;33.53
55755;BME280;41674;52.290;-1.474;2022-08-19T12:22:44;100882.95;;;23.94;34.16
55755;BME280;41674;52.290;-1.474;2022-08-19T12:25:16;100882.64;;;22.16;37.70
55755;BME280;41674;52.290;-1.474;2022-08-19T12:27:47;100883.15;;;20.84;38.04
55755;BME280;41674;52.290;-1.474;2022-08-19T12:30:18;100881.39;;;21.14;39.39
55755;BME280;41674;52.290;-1.474;2022-08-19T12:32:50;100885.02;;;22.18;37.72
55755;BME280;41674;52.290;-1.474;2022-08-19T12:35:22;100881.16;;;23.07;38.00
55755;BME280;41674;52.290;-1.474;2022-08-19T12:37:55;100875.87;;;24.64;36.41
55755;BME280;41674;52.290;-1.474;2022-08-19T12:40:27;100873.03;;;22.47;37.28
55755;BME280;41674;52.290;-1.474;2022-08-19T12:42:58;100886.66;;;21.58;38.56
55755;BME280;41674;52.290;-1.474;2022-08-19T12:45:29;100877.38;;;21.70;39.19
55755;BME280;41674;52.290;-1.474;2022-08-19T12:48:00;100873.55;;;21.70;38.48
55755;BME280;41674;52.290;-1.474;2022-08-19T12:50:44;100884.37;;;21.55;39.39
55755;BME280;41674;52.290;-1.474;2022-08-19T12:53:16;100887.34;;;23.05;37.55
55755;BME280;41674;52.290;-1.474;2022-08-19T12:55:55;100885.45;;;23.01;36.87
55755;BME280;41674;52.290;-1.474;2022-08-19T12:58:26;100872.30;;;23.13;36.02
55755;BME280;41674;52.290;-1.474;2022-08-19T13:00:58;100870.73;;;23.13;35.89
55755;BME280;41674;52.290;-1.474;2022-08-19T13:03:35;100876.75;;;24.56;32.72
55755;BME280;41674;52.290;-1.474;2022-08-19T13:06:07;100873.68;;;24.10;32.97
55755;BME280;41674;52.290;-1.474;2022-08-19T13:08:39;100869.84;;;25.23;31.22
55755;BME280;41674;52.290;-1.474;2022-08-19T13:11:12;100870.09;;;23.21;32.66
55755;BME280;41674;52.290;-1.474;2022-08-19T13:13:56;100865.17;;;24.18;31.55